Airfield :
LOGIN :

Register | Disclaimer

   EN    FR    IT 

 










Legend :    VFR   Marginal VFR   IFR   Intensive IFR   Very Intensive IFR
Visi :
Ceiling :
>= 8 km
>= 3000ft
5 to 8 km
1000 to 3000 ft
1500m to 5 km
500 to 1000 ft
800 to 1500m
200 to 500 ft
< 800m
< 200 ft
Symbols :   Thunderstorms  Fog  Heavy snow  Heavy precipitations  Wind > 20 kt
SIGMETs :     Misc.  Thunderstorms  Icing  Turbulence  Mountain Waves  Volcanic Ashes







- Airport Elevation : 245 ft
- IATA code : BIQ
- Download approach charts


LFBZ - Biarritz

CURRENT METAR :
  • 181630Z AUTO 30004KT 260V340 CAVOK 23/19 Q1017 TEMPO 4000 -SHRA BKN010 SCT045CB

EXPIRED METARs :
  • 181600Z AUTO 29006KT 260V320 CAVOK 23/19 Q1017 TEMPO 4000 -SHRA BKN010 SCT045CB
  • 181530Z AUTO 29007KT 270V330 CAVOK 23/19 Q1017 TEMPO 4000 -SHRA BKN010 SCT045CB
  • 181500Z AUTO 32005KT 270V010 CAVOK 24/19 Q1017 TEMPO 4000 -SHRA BKN010 SCT045CB
  • 181430Z AUTO 32006KT 9999 SCT014 23/19 Q1017 TEMPO 4000 -SHRA BKN010 SCT045CB
  • 181400Z AUTO 32007KT 280V360 9999 BKN014 23/19 Q1017 BECMG SCT060TCU

TAF TAF LFBZ
Valid from the 18 at 12:00 until the 19 at 12:00 UTC


181100Z 1812/1912 27005KT 9999 FEW010
BECMG 1813/1815 SCT060TCU
TEMPO 1816/1820 4000 -SHRA BKN010 SCT045CB
BECMG 1820/1824 BKN020
TEMPO 1904/1906 3000 BR BKN005
BECMG 1906/1908 SCT030
No reported NOTAMs for that airfield.
1 SIGMET reported for the Bordeaux FIR (LFBB) :
 
Embedded thunderstorms
LFBB SIGMET 2 VALID 181620/181800 LFPW
LFBB BORDEAUX FIR/UIR EMBD TS OBS WI N4615 E00300 - N4445 E00245 - N4530 E00200 - N4615 E00300 TOP FL340 STNR NC=



MET'MAP, your aeronautical weather chart ! - Copyright ORBIFLY December 2007 - Disclaimer

ORBIFLY MET'MAP TEAM :

Programming & Development : Alexandra Zaïnal
Concept & Development : Baudouin d'Aumeries
Co-Development & Prog : Marc-Olivier Méhu
Technical & hardware support : Manuel Goepfert

Contact : metmap@orbifly.com




SOURCES & CREDITS :

   NOAA